createdAt,value
2019-04-21T00:00:55.414Z,12.90
2019-04-21T00:03:27.477Z,12.90
2019-04-21T00:06:18.389Z,12.90
2019-04-21T00:08:50.580Z,12.90
2019-04-21T00:11:26.464Z,13.00
2019-04-21T00:13:51.443Z,13.00
2019-04-21T00:16:10.869Z,13.10
2019-04-21T00:19:17.238Z,13.10
2019-04-21T00:21:50.975Z,13.10
2019-04-21T00:24:30.489Z,13.10
2019-04-21T00:27:05.249Z,13.10
2019-04-21T00:29:45.204Z,13.00
2019-04-21T00:32:10.459Z,13.00
2019-04-21T00:34:30.171Z,12.90
2019-04-21T00:37:12.285Z,12.90
2019-04-21T00:40:00.218Z,12.80
2019-04-21T00:42:32.682Z,12.80
2019-04-21T00:44:58.947Z,12.70
2019-04-21T00:47:34.086Z,12.60
2019-04-21T00:50:08.095Z,12.60
2019-04-21T00:52:58.223Z,12.60
2019-04-21T00:58:19.447Z,12.40
2019-04-21T01:00:46.023Z,12.30
2019-04-21T01:03:20.610Z,12.20
2019-04-21T01:06:00.780Z,12.20
2019-04-21T01:08:23.477Z,12.10
2019-04-21T01:10:49.971Z,12.10
2019-04-21T01:13:39.473Z,12.10
2019-04-21T01:16:07.228Z,12.10
2019-04-21T01:18:32.407Z,12.00
2019-04-21T01:20:47.316Z,12.00
2019-04-21T01:23:19.217Z,11.90
2019-04-21T01:26:09.209Z,11.80
2019-04-21T01:28:40.067Z,11.80
2019-04-21T01:31:13.642Z,11.70
2019-04-21T01:33:50.851Z,11.60
2019-04-21T01:36:18.204Z,11.60
2019-04-21T01:39:01.128Z,11.50
2019-04-21T01:41:35.193Z,11.50
2019-04-21T01:43:55.600Z,11.50
2019-04-21T01:46:29.842Z,11.50
2019-04-21T01:49:02.160Z,11.40
2019-04-21T01:51:45.444Z,11.40
2019-04-21T01:54:35.582Z,11.30
2019-04-21T01:57:20.037Z,11.20
2019-04-21T01:59:43.898Z,11.20
2019-04-21T02:02:26.667Z,11.10
2019-04-21T02:05:05.812Z,11.10
2019-04-21T02:07:32.645Z,11.20
2019-04-21T02:10:04.809Z,11.10
2019-04-21T02:12:42.095Z,11.20
2019-04-21T02:15:11.328Z,11.20
2019-04-21T02:17:45.304Z,11.20
2019-04-21T02:20:09.481Z,11.20
2019-04-21T02:23:07.351Z,11.10
2019-04-21T02:25:26.327Z,11.00
2019-04-21T02:27:57.598Z,11.00
2019-04-21T02:33:23.175Z,11.00
2019-04-21T02:36:16.502Z,11.00
2019-04-21T02:38:34.270Z,11.00
2019-04-21T02:43:24.918Z,10.90
2019-04-21T02:46:04.757Z,10.70
2019-04-21T02:48:38.262Z,10.60
2019-04-21T02:51:10.775Z,10.40
2019-04-21T02:56:17.995Z,10.10
2019-04-21T02:59:12.387Z,9.90
2019-04-21T03:02:04.486Z,9.70
2019-04-21T03:04:43.116Z,9.60
2019-04-21T03:09:51.210Z,9.30
2019-04-21T03:12:38.068Z,9.20
2019-04-21T03:17:46.226Z,8.90
2019-04-21T03:20:15.066Z,8.80
2019-04-21T03:22:42.232Z,8.60
2019-04-21T03:25:25.149Z,8.60
2019-04-21T03:27:57.286Z,8.50
2019-04-21T03:38:14.688Z,8.20
2019-04-21T03:40:26.175Z,8.20
2019-04-21T03:43:04.934Z,8.10
2019-04-21T03:48:11.525Z,8.00
2019-04-21T03:50:44.781Z,8.00
2019-04-21T03:58:35.124Z,8.00
2019-04-21T04:14:47.452Z,8.10
2019-04-21T04:27:33.367Z,7.80
2019-04-21T04:30:07.998Z,7.80
2019-04-21T04:32:23.514Z,7.70
2019-04-21T04:34:57.193Z,7.70
2019-04-21T04:37:32.645Z,7.60
2019-04-21T04:42:56.907Z,7.50
2019-04-21T04:45:31.477Z,7.50
2019-04-21T04:48:11.918Z,7.60
2019-04-21T04:50:43.345Z,7.60
2019-04-21T04:53:15.688Z,7.60
2019-04-21T05:03:32.923Z,7.70
2019-04-21T05:09:07.714Z,7.80
2019-04-21T05:16:53.081Z,8.10
2019-04-21T05:19:14.623Z,8.20
2019-04-21T05:21:42.286Z,8.30
2019-04-21T05:24:08.199Z,8.40
2019-04-21T05:26:39.094Z,8.60
2019-04-21T05:29:11.014Z,8.70
2019-04-21T05:32:13.263Z,8.80
2019-04-21T05:34:31.627Z,8.90
2019-04-21T05:37:14.180Z,9.30
2019-04-21T05:39:47.985Z,9.60
2019-04-21T05:42:22.744Z,9.90
2019-04-21T05:45:09.174Z,10.00
2019-04-21T05:48:05.987Z,10.30
2019-04-21T05:50:27.522Z,10.60
2019-04-21T05:58:20.994Z,13.20
2019-04-21T06:03:41.112Z,15.40
2019-04-21T06:06:13.779Z,16.30
2019-04-21T06:08:49.682Z,17.00
2019-04-21T06:11:23.305Z,17.30
2019-04-21T06:13:55.143Z,17.30
2019-04-21T06:16:28.733Z,17.60
2019-04-21T06:18:58.734Z,17.80
2019-04-21T06:21:30.786Z,18.00
2019-04-21T06:24:08.408Z,18.20
2019-04-21T06:26:54.987Z,18.60
2019-04-21T06:29:13.469Z,18.90
2019-04-21T06:34:16.637Z,19.70
2019-04-21T06:37:07.827Z,19.70
2019-04-21T06:39:57.027Z,19.70
2019-04-21T06:42:10.887Z,19.70
2019-04-21T06:44:54.526Z,19.60
2019-04-21T06:47:27.673Z,19.70
2019-04-21T06:49:48.624Z,19.80
2019-04-21T06:55:05.382Z,19.50
2019-04-21T07:00:02.888Z,19.80
2019-04-21T07:02:50.739Z,19.90
2019-04-21T07:05:09.096Z,20.40
2019-04-21T07:07:43.434Z,20.50
2019-04-21T07:10:16.935Z,20.50
2019-04-21T07:12:46.604Z,20.60
2019-04-21T07:15:27.832Z,21.10
2019-04-21T07:23:22.684Z,21.40
2019-04-21T07:25:45.922Z,20.90
2019-04-21T07:28:17.530Z,20.80
2019-04-21T07:30:56.637Z,21.10
2019-04-21T07:33:50.893Z,20.90
2019-04-21T07:35:57.823Z,20.80
2019-04-21T07:38:28.588Z,20.70
2019-04-21T07:40:57.017Z,21.10
2019-04-21T07:43:43.776Z,21.50
2019-04-21T07:46:15.395Z,21.70
2019-04-21T07:48:58.530Z,21.60
2019-04-21T07:51:45.619Z,22.10
2019-04-21T07:54:23.776Z,22.40
2019-04-21T07:56:35.039Z,22.50
2019-04-21T07:59:27.272Z,22.90
2019-04-21T08:01:55.013Z,23.10
2019-04-21T08:04:49.632Z,23.30
2019-04-21T08:06:58.203Z,23.80
2019-04-21T08:09:38.989Z,24.30
2019-04-21T08:12:03.783Z,24.60
2019-04-21T08:14:43.929Z,24.60
2019-04-21T08:17:09.529Z,24.20
2019-04-21T08:19:44.602Z,24.00
2019-04-21T08:22:29.220Z,24.00
2019-04-21T08:24:50.852Z,23.90
2019-04-21T08:27:28.217Z,23.60
2019-04-21T08:29:58.342Z,23.60
2019-04-21T08:32:46.325Z,24.00
2019-04-21T08:35:20.695Z,23.90
2019-04-21T08:37:39.883Z,24.00
2019-04-21T08:42:50.791Z,24.60
2019-04-21T08:50:27.887Z,25.50
2019-04-21T08:53:03.890Z,25.60
2019-04-21T08:56:10.002Z,25.20
2019-04-21T08:58:54.887Z,24.90
2019-04-21T09:01:30.414Z,24.90
2019-04-21T09:03:59.416Z,24.40
2019-04-21T09:06:58.616Z,24.40
2019-04-21T09:09:10.891Z,24.90
2019-04-21T09:11:42.203Z,25.40
2019-04-21T09:14:13.862Z,26.10
2019-04-21T09:16:47.721Z,26.50
2019-04-21T09:19:33.977Z,26.90
2019-04-21T09:21:54.577Z,26.80
2019-04-21T09:24:26.985Z,27.10
2019-04-21T09:26:57.986Z,27.20
2019-04-21T09:29:26.472Z,26.60
2019-04-21T09:31:54.466Z,26.10
2019-04-21T09:34:31.859Z,25.80
2019-04-21T09:37:13.988Z,25.60
2019-04-21T09:39:31.559Z,25.50
2019-04-21T09:42:04.639Z,25.40
2019-04-21T09:44:40.124Z,25.20
2019-04-21T09:47:09.203Z,24.60
2019-04-21T09:49:43.131Z,24.20
2019-04-21T09:52:20.918Z,23.60
2019-04-21T09:54:56.618Z,22.90
2019-04-21T09:57:31.528Z,22.60
2019-04-21T10:00:02.244Z,22.50
2019-04-21T10:02:34.138Z,22.40
2019-04-21T10:05:00.175Z,22.40
2019-04-21T10:07:35.572Z,22.30
2019-04-21T10:10:05.897Z,22.40
2019-04-21T10:12:37.472Z,22.30
2019-04-21T10:15:10.748Z,22.20
2019-04-21T10:17:54.376Z,22.20
2019-04-21T10:20:26.459Z,22.30
2019-04-21T10:22:57.903Z,22.40
2019-04-21T10:25:30.526Z,22.30
2019-04-21T10:28:03.118Z,22.30
2019-04-21T10:30:36.440Z,22.30
2019-04-21T10:33:08.394Z,22.40
2019-04-21T10:35:41.204Z,22.40
2019-04-21T10:38:22.711Z,22.40
2019-04-21T10:40:45.844Z,22.50
2019-04-21T10:43:20.665Z,22.50
2019-04-21T10:45:50.716Z,22.50
2019-04-21T10:48:23.119Z,22.60
2019-04-21T10:50:54.905Z,22.50
2019-04-21T10:53:32.386Z,22.50
2019-04-21T10:56:15.692Z,22.40
2019-04-21T10:58:42.426Z,22.20
2019-04-21T11:01:23.189Z,22.00
2019-04-21T11:04:20.326Z,22.00
2019-04-21T11:06:46.844Z,22.00
2019-04-21T11:09:18.130Z,22.10
2019-04-21T11:11:51.372Z,22.30
2019-04-21T11:14:23.145Z,22.20
2019-04-21T11:16:55.146Z,22.20
2019-04-21T11:19:28.591Z,22.30
2019-04-21T11:22:01.026Z,22.30
2019-04-21T11:24:33.651Z,22.30
2019-04-21T11:27:04.969Z,22.20
2019-04-21T11:29:37.156Z,22.20
2019-04-21T11:32:09.318Z,22.10
2019-04-21T11:34:41.009Z,22.30
2019-04-21T11:37:14.382Z,22.30
2019-04-21T11:39:52.016Z,22.40
2019-04-21T11:42:28.235Z,22.50
2019-04-21T11:45:00.658Z,22.60
2019-04-21T11:47:36.704Z,22.70
2019-04-21T11:50:08.305Z,22.70
2019-04-21T11:52:40.797Z,22.60
2019-04-21T11:55:12.873Z,22.70
2019-04-21T11:57:49.463Z,22.60
2019-04-21T12:00:19.745Z,22.50
2019-04-21T12:02:51.265Z,22.50
2019-04-21T12:05:23.603Z,22.60
2019-04-21T12:07:58.274Z,22.70
2019-04-21T12:10:29.243Z,22.80
2019-04-21T12:13:01.379Z,22.80
2019-04-21T12:15:34.668Z,22.80
2019-04-21T12:18:06.241Z,22.70
2019-04-21T12:20:38.157Z,22.80
2019-04-21T12:23:09.495Z,22.80
2019-04-21T12:25:45.181Z,22.80
2019-04-21T12:28:17.427Z,22.80
2019-04-21T12:30:53.647Z,22.80
2019-04-21T12:34:00.298Z,22.80
2019-04-21T12:36:31.794Z,22.80
2019-04-21T12:39:05.190Z,22.80
2019-04-21T12:41:36.306Z,22.80
2019-04-21T12:44:08.810Z,22.90
2019-04-21T12:46:40.329Z,23.00
2019-04-21T12:49:11.922Z,23.00
2019-04-21T12:54:12.618Z,23.10
2019-04-21T12:56:43.883Z,23.20
2019-04-21T12:59:15.208Z,23.10
2019-04-21T13:01:46.616Z,23.10
2019-04-21T13:04:17.871Z,23.20
2019-04-21T13:06:49.835Z,23.20
2019-04-21T13:09:22.247Z,23.20
2019-04-21T13:11:55.061Z,23.30
2019-04-21T13:14:26.561Z,23.30
2019-04-21T13:16:57.746Z,23.20
2019-04-21T13:19:29.351Z,23.20
2019-04-21T13:22:01.613Z,23.20
2019-04-21T13:24:33.709Z,23.40
2019-04-21T13:27:06.782Z,23.40
2019-04-21T13:29:38.586Z,23.50
2019-04-21T13:32:10.780Z,23.60
2019-04-21T13:34:44.193Z,23.60
2019-04-21T13:37:15.664Z,23.60
2019-04-21T13:40:25.197Z,23.50
2019-04-21T13:42:43.822Z,23.40
2019-04-21T13:45:12.222Z,23.50
2019-04-21T13:47:43.646Z,23.60
2019-04-21T13:50:17.238Z,23.70
2019-04-21T13:52:48.962Z,23.80
2019-04-21T13:55:21.349Z,23.70
2019-04-21T13:57:52.823Z,23.70
2019-04-21T14:00:24.495Z,23.70
2019-04-21T14:02:56.503Z,23.70
2019-04-21T14:05:28.678Z,23.80
2019-04-21T14:08:00.986Z,23.80
2019-04-21T14:10:33.512Z,23.80
2019-04-21T14:13:06.606Z,23.70
2019-04-21T14:15:38.081Z,23.70
2019-04-21T14:18:09.386Z,23.70
2019-04-21T14:20:40.719Z,23.70
2019-04-21T14:23:21.334Z,23.70
2019-04-21T14:25:45.807Z,23.80
2019-04-21T14:28:17.833Z,23.80
2019-04-21T14:30:50.454Z,23.70
2019-04-21T14:33:23.437Z,23.80
2019-04-21T14:35:54.867Z,23.80
2019-04-21T14:38:26.792Z,23.80
2019-04-21T14:40:58.369Z,23.80
2019-04-21T14:43:30.089Z,23.90
2019-04-21T14:46:21.464Z,24.00
2019-04-21T14:49:15.188Z,24.00
2019-04-21T14:52:05.301Z,24.10
2019-04-21T14:55:00.681Z,24.30
2019-04-21T14:57:31.980Z,24.40
2019-04-21T15:00:04.836Z,24.90
2019-04-21T15:02:36.245Z,25.00
2019-04-21T15:05:09.470Z,25.40
2019-04-21T15:07:41.445Z,25.90
2019-04-21T15:10:20.089Z,26.30
2019-04-21T15:12:47.791Z,26.90
2019-04-21T15:15:20.180Z,27.20
2019-04-21T15:17:51.645Z,27.00
2019-04-21T15:20:23.841Z,27.00
2019-04-21T15:22:56.584Z,27.40
2019-04-21T15:25:28.019Z,27.40
2019-04-21T15:27:59.341Z,27.50
2019-04-21T15:30:32.448Z,27.70
2019-04-21T15:33:04.519Z,27.60
2019-04-21T15:35:37.355Z,27.70
2019-04-21T15:38:09.761Z,27.90
2019-04-21T15:40:49.656Z,27.70
2019-04-21T15:43:14.742Z,27.50
2019-04-21T15:45:46.786Z,28.00
2019-04-21T15:48:18.319Z,28.50
2019-04-21T15:50:51.547Z,28.50
2019-04-21T15:53:23.648Z,28.60
2019-04-21T15:56:08.719Z,28.50
2019-04-21T15:58:46.408Z,28.80
2019-04-21T16:01:36.475Z,29.00
2019-04-21T16:04:08.055Z,28.80
2019-04-21T16:06:39.672Z,28.70
2019-04-21T16:09:14.895Z,28.50
2019-04-21T16:11:46.371Z,28.10
2019-04-21T16:14:20.594Z,27.70
2019-04-21T16:16:53.566Z,27.70
2019-04-21T16:19:25.210Z,27.60
2019-04-21T16:21:56.797Z,27.60
2019-04-21T16:24:28.168Z,27.10
2019-04-21T16:27:01.698Z,27.10
2019-04-21T16:29:33.289Z,27.00
2019-04-21T16:32:04.953Z,26.60
2019-04-21T16:34:45.631Z,26.20
2019-04-21T16:37:09.774Z,26.10
2019-04-21T16:39:45.338Z,25.80
2019-04-21T16:42:16.681Z,25.80
2019-04-21T16:44:49.170Z,25.90
2019-04-21T16:47:21.505Z,25.70
2019-04-21T16:49:53.923Z,25.50
2019-04-21T16:52:30.004Z,25.20
2019-04-21T16:55:07.061Z,25.20
2019-04-21T16:57:59.474Z,25.70
2019-04-21T17:00:31.605Z,25.90
2019-04-21T17:02:58.799Z,25.50
2019-04-21T17:05:30.168Z,25.50
2019-04-21T17:08:01.852Z,25.30
2019-04-21T17:10:33.255Z,24.90
2019-04-21T17:13:06.202Z,24.50
2019-04-21T17:15:56.679Z,24.10
2019-04-21T17:18:25.588Z,24.00
2019-04-21T17:20:49.160Z,24.20
2019-04-21T17:23:19.737Z,24.40
2019-04-21T17:25:51.058Z,24.60
2019-04-21T17:28:23.526Z,24.70
2019-04-21T17:30:54.808Z,24.70
2019-04-21T17:33:28.330Z,24.50
2019-04-21T17:35:59.148Z,24.40
2019-04-21T17:38:30.591Z,24.30
2019-04-21T17:41:13.876Z,24.40
2019-04-21T17:43:35.678Z,24.70
2019-04-21T17:46:07.220Z,24.50
2019-04-21T17:48:38.775Z,23.80
2019-04-21T17:51:29.850Z,23.20
2019-04-21T17:54:13.914Z,22.70
2019-04-21T17:59:44.774Z,22.10
2019-04-21T18:02:00.459Z,21.90
2019-04-21T18:04:37.466Z,21.70
2019-04-21T18:07:27.445Z,21.60
2019-04-21T18:10:04.734Z,21.40
2019-04-21T18:12:40.028Z,21.30
2019-04-21T18:15:08.396Z,21.10
2019-04-21T18:17:28.673Z,21.00
2019-04-21T18:20:01.666Z,20.90
2019-04-21T18:23:02.364Z,20.70
2019-04-21T18:25:44.886Z,20.60
2019-04-21T18:28:08.237Z,20.50
2019-04-21T18:30:46.930Z,20.30
2019-04-21T18:33:25.317Z,20.20
2019-04-21T18:36:34.841Z,20.00
2019-04-21T18:39:49.530Z,19.90
2019-04-21T18:42:31.129Z,19.80
2019-04-21T18:45:45.814Z,19.60
2019-04-21T18:48:21.782Z,19.50
2019-04-21T18:51:00.281Z,19.40
2019-04-21T18:53:44.767Z,19.30
2019-04-21T18:56:06.452Z,19.20
2019-04-21T18:58:36.156Z,19.10
2019-04-21T19:01:16.365Z,19.00
2019-04-21T19:03:44.992Z,18.90
2019-04-21T19:06:18.796Z,18.80
2019-04-21T19:09:04.852Z,18.80
2019-04-21T19:11:33.235Z,18.80
2019-04-21T19:14:34.693Z,18.70
2019-04-21T19:17:29.227Z,18.70
2019-04-21T19:19:44.475Z,18.60
2019-04-21T19:22:10.490Z,18.60
2019-04-21T19:25:00.407Z,18.60
2019-04-21T19:27:17.619Z,18.50
2019-04-21T19:29:58.311Z,18.40
2019-04-21T19:34:40.395Z,18.40
2019-04-21T19:37:14.957Z,18.30
2019-04-21T19:39:56.677Z,18.30
2019-04-21T19:42:25.668Z,18.20
2019-04-21T19:45:05.927Z,18.30
2019-04-21T19:47:40.583Z,18.30
2019-04-21T19:50:19.525Z,18.30
2019-04-21T19:52:39.902Z,18.30
2019-04-21T19:55:02.542Z,18.30
2019-04-21T19:57:34.724Z,18.30
2019-04-21T20:00:08.200Z,18.20
2019-04-21T20:02:40.535Z,18.20
2019-04-21T20:05:20.227Z,18.20
2019-04-21T20:08:04.124Z,18.20
2019-04-21T20:10:39.540Z,18.30
2019-04-21T20:13:14.549Z,18.20
2019-04-21T20:15:44.731Z,18.20
2019-04-21T20:18:07.188Z,18.20
2019-04-21T20:20:30.970Z,18.20
2019-04-21T20:23:03.056Z,18.30
2019-04-21T20:25:42.407Z,18.20
2019-04-21T20:28:16.086Z,18.10
2019-04-21T20:30:58.320Z,18.10
2019-04-21T20:33:48.715Z,18.10
2019-04-21T20:36:09.715Z,18.20
2019-04-21T20:38:31.099Z,18.10
2019-04-21T20:41:00.134Z,18.10
2019-04-21T20:43:42.529Z,18.00
2019-04-21T20:46:12.344Z,18.00
2019-04-21T20:48:48.078Z,17.90
2019-04-21T20:51:21.909Z,17.90
2019-04-21T20:53:53.849Z,17.80
2019-04-21T20:56:21.179Z,17.70
2019-04-21T20:59:04.480Z,17.70
2019-04-21T21:01:34.820Z,17.70
2019-04-21T21:04:10.266Z,17.60
2019-04-21T21:06:36.032Z,17.50
2019-04-21T21:09:10.151Z,17.40
2019-04-21T21:11:56.554Z,17.30
2019-04-21T21:14:26.914Z,17.10
2019-04-21T21:16:58.105Z,17.00
2019-04-21T21:19:28.910Z,16.90
2019-04-21T21:21:56.455Z,16.80
2019-04-21T21:24:38.815Z,16.70
2019-04-21T21:27:05.920Z,16.50
2019-04-21T21:29:33.578Z,16.40
2019-04-21T21:32:16.681Z,16.30
2019-04-21T21:34:47.914Z,16.10
2019-04-21T21:37:26.802Z,16.10
2019-04-21T21:39:57.117Z,16.00
2019-04-21T21:42:07.572Z,15.90
2019-04-21T21:44:41.721Z,15.80
2019-04-21T21:47:26.147Z,15.70
2019-04-21T21:49:55.430Z,15.60
2019-04-21T21:52:32.739Z,15.40
2019-04-21T21:54:49.864Z,15.30
2019-04-21T21:57:21.209Z,15.20
2019-04-21T21:59:58.838Z,15.10
2019-04-21T22:02:35.318Z,15.10
2019-04-21T22:05:08.712Z,15.20
2019-04-21T22:07:33.668Z,15.20
2019-04-21T22:10:06.336Z,15.30
2019-04-21T22:12:45.706Z,15.40
2019-04-21T22:15:18.840Z,15.40
2019-04-21T22:18:01.144Z,15.50
2019-04-21T22:20:37.809Z,15.50
2019-04-21T22:23:00.651Z,15.60
2019-04-21T22:25:28.227Z,15.70
2019-04-21T22:27:57.909Z,15.80
2019-04-21T22:30:37.044Z,15.80
2019-04-21T22:33:08.288Z,15.80
2019-04-21T22:35:42.556Z,15.70
2019-04-21T22:38:23.390Z,15.70
2019-04-21T22:40:55.478Z,15.70
2019-04-21T22:43:24.477Z,15.70
2019-04-21T22:45:49.394Z,15.70
2019-04-21T22:48:23.644Z,15.70
2019-04-21T22:50:53.784Z,15.60
2019-04-21T22:53:29.336Z,15.60
2019-04-21T22:56:04.332Z,15.50
2019-04-21T22:58:35.703Z,15.40
2019-04-21T23:01:05.576Z,15.40
2019-04-21T23:03:40.141Z,15.40
2019-04-21T23:06:16.208Z,15.30
2019-04-21T23:08:45.657Z,15.30
2019-04-21T23:11:16.678Z,15.30
2019-04-21T23:13:52.660Z,15.20
2019-04-21T23:16:29.317Z,15.20
2019-04-21T23:19:10.991Z,15.20
2019-04-21T23:21:48.466Z,15.10
2019-04-21T23:24:14.869Z,15.10
2019-04-21T23:26:48.611Z,15.00
2019-04-21T23:29:25.854Z,14.90
2019-04-21T23:31:55.059Z,14.90
2019-04-21T23:34:18.449Z,14.90
2019-04-21T23:36:54.373Z,14.80
2019-04-21T23:39:23.660Z,14.70
2019-04-21T23:41:52.945Z,14.70
2019-04-21T23:44:24.091Z,14.70
2019-04-21T23:47:00.987Z,14.60
2019-04-21T23:49:40.551Z,14.60
2019-04-21T23:52:05.247Z,14.60
2019-04-21T23:54:35.481Z,14.60
2019-04-21T23:57:14.315Z,14.50
2019-04-21T23:59:51.274Z,14.50
